sensor_id;sensor_type;location;lat;lon;timestamp;pressure;altitude;pressure_sealevel;temperature;humidity
49947;BME280;35839;48.662;13.300;2022-08-30T05:05:04;97695.63;;;12.79;100.00
49947;BME280;35839;48.662;13.300;2022-08-30T05:07:48;97689.50;;;12.97;100.00
49947;BME280;35839;48.662;13.300;2022-08-30T05:10:14;97693.16;;;13.04;100.00
49947;BME280;35839;48.662;13.300;2022-08-30T05:12:40;97693.28;;;13.02;100.00
49947;BME280;35839;48.662;13.300;2022-08-30T05:15:05;97689.38;;;13.06;100.00
49947;BME280;35839;48.662;13.300;2022-08-30T05:17:31;97701.91;;;13.13;100.00
49947;BME280;35839;48.662;13.300;2022-08-30T05:19:56;97701.41;;;13.17;100.00
49947;BME280;35839;48.662;13.300;2022-08-30T05:22:22;97699.13;;;13.22;100.00
49947;BME280;35839;48.662;13.300;2022-08-30T05:24:47;97693.44;;;13.35;100.00
49947;BME280;35839;48.662;13.300;2022-08-30T05:27:13;97701.53;;;13.42;100.00
49947;BME280;35839;48.662;13.300;2022-08-30T05:29:38;97715.53;;;13.51;100.00
49947;BME280;35839;48.662;13.300;2022-08-30T05:32:04;97702.41;;;13.67;100.00
49947;BME280;35839;48.662;13.300;2022-08-30T05:34:29;97714.84;;;13.48;100.00
49947;BME280;35839;48.662;13.300;2022-08-30T05:36:55;97715.00;;;13.39;100.00
49947;BME280;35839;48.662;13.300;2022-08-30T05:39:20;97706.97;;;13.14;100.00
49947;BME280;35839;48.662;13.300;2022-08-30T05:41:46;97713.09;;;13.15;100.00
49947;BME280;35839;48.662;13.300;2022-08-30T05:44:11;97713.69;;;13.08;100.00
49947;BME280;35839;48.662;13.300;2022-08-30T05:46:37;97723.19;;;13.27;100.00
49947;BME280;35839;48.662;13.300;2022-08-30T05:49:05;97723.94;;;13.20;100.00
49947;BME280;35839;48.662;13.300;2022-08-30T05:51:33;97727.28;;;13.30;100.00
49947;BME280;35839;48.662;13.300;2022-08-30T05:53:59;97729.78;;;13.40;100.00
49947;BME280;35839;48.662;13.300;2022-08-30T05:56:30;97734.75;;;13.51;100.00
49947;BME280;35839;48.662;13.300;2022-08-30T05:58:56;97735.28;;;13.63;100.00
49947;BME280;35839;48.662;13.300;2022-08-30T06:01:31;97736.13;;;13.72;100.00
49947;BME280;35839;48.662;13.300;2022-08-30T06:03:58;97736.50;;;13.85;100.00
49947;BME280;35839;48.662;13.300;2022-08-30T06:06:25;97739.16;;;14.01;100.00
49947;BME280;35839;48.662;13.300;2022-08-30T06:08:51;97735.06;;;14.15;100.00
49947;BME280;35839;48.662;13.300;2022-08-30T06:11:19;97746.88;;;14.19;100.00
49947;BME280;35839;48.662;13.300;2022-08-30T06:13:45;97744.59;;;14.32;100.00
49947;BME280;35839;48.662;13.300;2022-08-30T06:16:12;97746.91;;;14.44;100.00
49947;BME280;35839;48.662;13.300;2022-08-30T06:18:38;97751.50;;;14.50;100.00
49947;BME280;35839;48.662;13.300;2022-08-30T06:21:04;97743.28;;;14.61;100.00
49947;BME280;35839;48.662;13.300;2022-08-30T06:23:29;97741.97;;;14.73;100.00
49947;BME280;35839;48.662;13.300;2022-08-30T06:25:55;97734.16;;;14.96;100.00
49947;BME280;35839;48.662;13.300;2022-08-30T06:28:21;97739.56;;;15.11;100.00
49947;BME280;35839;48.662;13.300;2022-08-30T06:30:47;97744.41;;;15.31;100.00
49947;BME280;35839;48.662;13.300;2022-08-30T06:33:12;97740.25;;;15.45;100.00
49947;BME280;35839;48.662;13.300;2022-08-30T06:35:38;97725.03;;;15.55;100.00
49947;BME280;35839;48.662;13.300;2022-08-30T06:38:03;97735.53;;;15.71;100.00
49947;BME280;35839;48.662;13.300;2022-08-30T06:40:29;97736.63;;;15.77;100.00
49947;BME280;35839;48.662;13.300;2022-08-30T06:42:54;97737.22;;;15.87;100.00
49947;BME280;35839;48.662;13.300;2022-08-30T06:45:20;97735.84;;;15.99;100.00
49947;BME280;35839;48.662;13.300;2022-08-30T06:47:46;97740.00;;;16.17;100.00
49947;BME280;35839;48.662;13.300;2022-08-30T06:50:13;97733.94;;;16.31;100.00
49947;BME280;35839;48.662;13.300;2022-08-30T06:52:43;97733.25;;;16.52;100.00
49947;BME280;35839;48.662;13.300;2022-08-30T06:55:11;97734.41;;;16.73;100.00
49947;BME280;35839;48.662;13.300;2022-08-30T06:57:37;97723.41;;;16.84;100.00
49947;BME280;35839;48.662;13.300;2022-08-30T07:00:05;97727.06;;;16.98;100.00
49947;BME280;35839;48.662;13.300;2022-08-30T07:02:31;97735.38;;;17.10;100.00
49947;BME280;35839;48.662;13.300;2022-08-30T07:04:57;97737.56;;;17.21;100.00
49947;BME280;35839;48.662;13.300;2022-08-30T07:07:22;97737.91;;;17.33;100.00
49947;BME280;35839;48.662;13.300;2022-08-30T07:09:48;97741.00;;;17.36;100.00
49947;BME280;35839;48.662;13.300;2022-08-30T07:12:13;97747.28;;;17.50;100.00
49947;BME280;35839;48.662;13.300;2022-08-30T07:14:40;97752.66;;;17.72;100.00
49947;BME280;35839;48.662;13.300;2022-08-30T07:17:07;97750.59;;;17.74;100.00
49947;BME280;35839;48.662;13.300;2022-08-30T07:19:52;97746.53;;;17.86;100.00
49947;BME280;35839;48.662;13.300;2022-08-30T07:22:17;97756.44;;;17.99;100.00
49947;BME280;35839;48.662;13.300;2022-08-30T07:24:43;97756.94;;;18.09;100.00
49947;BME280;35839;48.662;13.300;2022-08-30T07:27:08;97757.19;;;18.14;100.00
49947;BME280;35839;48.662;13.300;2022-08-30T07:29:33;97756.13;;;18.30;100.00
49947;BME280;35839;48.662;13.300;2022-08-30T07:31:59;97759.28;;;18.40;100.00
49947;BME280;35839;48.662;13.300;2022-08-30T07:34:24;97758.75;;;18.51;100.00
49947;BME280;35839;48.662;13.300;2022-08-30T07:36:49;97754.56;;;18.64;100.00
49947;BME280;35839;48.662;13.300;2022-08-30T07:39:15;97760.75;;;18.71;100.00
49947;BME280;35839;48.662;13.300;2022-08-30T07:41:40;97756.19;;;18.86;100.00
49947;BME280;35839;48.662;13.300;2022-08-30T07:44:07;97752.00;;;18.99;100.00
49947;BME280;35839;48.662;13.300;2022-08-30T07:46:32;97747.22;;;19.22;100.00
49947;BME280;35839;48.662;13.300;2022-08-30T07:48:59;97742.75;;;19.29;100.00
49947;BME280;35839;48.662;13.300;2022-08-30T07:51:25;97743.00;;;19.34;100.00
49947;BME280;35839;48.662;13.300;2022-08-30T07:53:52;97744.53;;;19.57;100.00
49947;BME280;35839;48.662;13.300;2022-08-30T07:56:18;97741.47;;;19.60;100.00
49947;BME280;35839;48.662;13.300;2022-08-30T07:58:43;97746.00;;;19.66;100.00
49947;BME280;35839;48.662;13.300;2022-08-30T08:01:10;97741.38;;;19.82;100.00
49947;BME280;35839;48.662;13.300;2022-08-30T08:03:37;97750.38;;;19.87;100.00
49947;BME280;35839;48.662;13.300;2022-08-30T08:06:06;97740.16;;;19.97;100.00
49947;BME280;35839;48.662;13.300;2022-08-30T08:08:32;97750.84;;;20.11;100.00
49947;BME280;35839;48.662;13.300;2022-08-30T08:11:04;97750.22;;;20.09;100.00
49947;BME280;35839;48.662;13.300;2022-08-30T08:13:30;97757.81;;;20.25;100.00
49947;BME280;35839;48.662;13.300;2022-08-30T08:15:55;97753.53;;;20.31;100.00
49947;BME280;35839;48.662;13.300;2022-08-30T08:18:21;97750.28;;;20.42;100.00
49947;BME280;35839;48.662;13.300;2022-08-30T08:20:46;97758.25;;;20.55;100.00
49947;BME280;35839;48.662;13.300;2022-08-30T08:23:11;97756.44;;;20.69;100.00
49947;BME280;35839;48.662;13.300;2022-08-30T08:25:39;97756.63;;;20.88;100.00
49947;BME280;35839;48.662;13.300;2022-08-30T08:28:05;97746.78;;;20.88;100.00
49947;BME280;35839;48.662;13.300;2022-08-30T08:30:33;97751.91;;;21.03;100.00
49947;BME280;35839;48.662;13.300;2022-08-30T08:32:59;97752.28;;;21.20;100.00
49947;BME280;35839;48.662;13.300;2022-08-30T08:35:24;97751.03;;;21.22;100.00
49947;BME280;35839;48.662;13.300;2022-08-30T08:37:50;97745.25;;;21.32;100.00
49947;BME280;35839;48.662;13.300;2022-08-30T08:40:17;97751.22;;;21.41;100.00
49947;BME280;35839;48.662;13.300;2022-08-30T08:43:13;97748.72;;;21.53;100.00
49947;BME280;35839;48.662;13.300;2022-08-30T08:48:31;97746.13;;;21.84;100.00
49947;BME280;35839;48.662;13.300;2022-08-30T08:50:57;97741.63;;;21.78;100.00
49947;BME280;35839;48.662;13.300;2022-08-30T08:53:45;97741.19;;;21.81;100.00
49947;BME280;35839;48.662;13.300;2022-08-30T08:56:14;97744.06;;;21.86;100.00
49947;BME280;35839;48.662;13.300;2022-08-30T08:58:46;97746.13;;;22.16;100.00
49947;BME280;35839;48.662;13.300;2022-08-30T09:01:13;97743.72;;;22.40;100.00
49947;BME280;35839;48.662;13.300;2022-08-30T09:03:40;97744.63;;;22.34;100.00
49947;BME280;35839;48.662;13.300;2022-08-30T09:06:36;97735.78;;;22.58;100.00
49947;BME280;35839;48.662;13.300;2022-08-30T09:09:04;97732.84;;;22.66;100.00
49947;BME280;35839;48.662;13.300;2022-08-30T09:11:33;97729.84;;;22.81;100.00
49947;BME280;35839;48.662;13.300;2022-08-30T09:13:59;97725.63;;;22.92;100.00
49947;BME280;35839;48.662;13.300;2022-08-30T09:19:15;97725.03;;;23.33;100.00
49947;BME280;35839;48.662;13.300;2022-08-30T09:21:56;97724.16;;;23.51;100.00
49947;BME280;35839;48.662;13.300;2022-08-30T09:24:22;97719.34;;;23.42;100.00
49947;BME280;35839;48.662;13.300;2022-08-30T09:26:47;97723.09;;;23.41;100.00
49947;BME280;35839;48.662;13.300;2022-08-30T09:29:17;97719.56;;;23.59;99.99
49947;BME280;35839;48.662;13.300;2022-08-30T09:31:49;97721.28;;;23.53;98.39
49947;BME280;35839;48.662;13.300;2022-08-30T09:34:18;97710.75;;;23.88;100.00
49947;BME280;35839;48.662;13.300;2022-08-30T09:36:47;97710.28;;;23.91;100.00
49947;BME280;35839;48.662;13.300;2022-08-30T09:41:49;97723.81;;;24.38;93.25
49947;BME280;35839;48.662;13.300;2022-08-30T09:46:50;97716.00;;;24.37;92.21
49947;BME280;35839;48.662;13.300;2022-08-30T09:51:54;97712.91;;;24.52;90.42
49947;BME280;35839;48.662;13.300;2022-08-30T09:54:32;97701.75;;;24.67;91.37
49947;BME280;35839;48.662;13.300;2022-08-30T10:02:34;97700.81;;;25.08;88.19
49947;BME280;35839;48.662;13.300;2022-08-30T10:05:29;97694.63;;;25.19;89.67
49947;BME280;35839;48.662;13.300;2022-08-30T10:10:54;97691.09;;;25.31;81.37
49947;BME280;35839;48.662;13.300;2022-08-30T10:18:42;97689.13;;;25.95;80.67
49947;BME280;35839;48.662;13.300;2022-08-30T10:21:22;97681.16;;;26.00;80.55
49947;BME280;35839;48.662;13.300;2022-08-30T10:24:13;97682.97;;;26.12;78.28
49947;BME280;35839;48.662;13.300;2022-08-30T10:26:49;97670.13;;;26.14;78.71
49947;BME280;35839;48.662;13.300;2022-08-30T10:29:48;97681.09;;;26.29;77.28
49947;BME280;35839;48.662;13.300;2022-08-30T10:32:26;97664.09;;;26.40;73.04
49947;BME280;35839;48.662;13.300;2022-08-30T10:35:04;97657.13;;;26.56;72.56
49947;BME280;35839;48.662;13.300;2022-08-30T10:37:35;97653.88;;;26.54;73.57
49947;BME280;35839;48.662;13.300;2022-08-30T10:40:08;97659.06;;;26.27;73.39
49947;BME280;35839;48.662;13.300;2022-08-30T10:42:55;97663.31;;;26.23;74.39
49947;BME280;35839;48.662;13.300;2022-08-30T10:45:23;97665.53;;;26.48;71.71
49947;BME280;35839;48.662;13.300;2022-08-30T10:47:59;97654.66;;;26.38;69.12
49947;BME280;35839;48.662;13.300;2022-08-30T10:50:47;97657.09;;;26.73;69.34
49947;BME280;35839;48.662;13.300;2022-08-30T10:53:31;97658.28;;;26.82;69.58
49947;BME280;35839;48.662;13.300;2022-08-30T10:56:13;97654.00;;;26.81;70.96
49947;BME280;35839;48.662;13.300;2022-08-30T10:58:41;97659.81;;;26.95;69.41
49947;BME280;35839;48.662;13.300;2022-08-30T11:01:27;97649.06;;;26.95;68.98
49947;BME280;35839;48.662;13.300;2022-08-30T11:12:33;97655.31;;;27.94;58.20
49947;BME280;35839;48.662;13.300;2022-08-30T11:15:12;97649.53;;;27.53;56.02
49947;BME280;35839;48.662;13.300;2022-08-30T11:18:01;97651.63;;;27.51;57.42
49947;BME280;35839;48.662;13.300;2022-08-30T11:20:46;97641.59;;;27.68;59.12
49947;BME280;35839;48.662;13.300;2022-08-30T11:33:48;97623.81;;;28.27;51.49
49947;BME280;35839;48.662;13.300;2022-08-30T11:39:10;97623.47;;;28.50;57.33
49947;BME280;35839;48.662;13.300;2022-08-30T11:41:37;97625.72;;;28.31;57.10
49947;BME280;35839;48.662;13.300;2022-08-30T11:50:11;97617.63;;;28.26;50.52
49947;BME280;35839;48.662;13.300;2022-08-30T11:52:41;97620.75;;;28.13;48.77
49947;BME280;35839;48.662;13.300;2022-08-30T11:58:08;97615.38;;;28.50;47.50
49947;BME280;35839;48.662;13.300;2022-08-30T12:00:41;97616.91;;;28.41;49.79
49947;BME280;35839;48.662;13.300;2022-08-30T12:08:08;97609.41;;;28.91;45.74
49947;BME280;35839;48.662;13.300;2022-08-30T12:10:44;97605.22;;;29.20;47.11
49947;BME280;35839;48.662;13.300;2022-08-30T12:16:06;97598.91;;;29.73;44.50
49947;BME280;35839;48.662;13.300;2022-08-30T12:23:59;97591.53;;;29.58;50.68
49947;BME280;35839;48.662;13.300;2022-08-30T12:31:48;97585.66;;;28.35;45.17
49947;BME280;35839;48.662;13.300;2022-08-30T12:37:29;97585.09;;;29.54;42.01
49947;BME280;35839;48.662;13.300;2022-08-30T12:40:08;97573.25;;;29.70;44.39
49947;BME280;35839;48.662;13.300;2022-08-30T12:42:39;97575.69;;;30.28;45.98
49947;BME280;35839;48.662;13.300;2022-08-30T12:45:12;97570.53;;;30.37;41.74
49947;BME280;35839;48.662;13.300;2022-08-30T12:47:42;97573.72;;;30.59;44.51
49947;BME280;35839;48.662;13.300;2022-08-30T12:50:13;97571.22;;;30.78;44.44
49947;BME280;35839;48.662;13.300;2022-08-30T12:52:43;97563.63;;;30.80;44.68
49947;BME280;35839;48.662;13.300;2022-08-30T12:55:20;97564.72;;;30.74;44.26
49947;BME280;35839;48.662;13.300;2022-08-30T12:58:09;97559.47;;;31.08;40.58
49947;BME280;35839;48.662;13.300;2022-08-30T13:00:43;97558.22;;;30.85;41.66
49947;BME280;35839;48.662;13.300;2022-08-30T13:03:28;97549.63;;;30.68;40.48
49947;BME280;35839;48.662;13.300;2022-08-30T13:05:57;97555.03;;;30.73;45.61
49947;BME280;35839;48.662;13.300;2022-08-30T13:11:08;97548.38;;;30.09;42.11
49947;BME280;35839;48.662;13.300;2022-08-30T13:13:55;97541.69;;;28.72;46.06
49947;BME280;35839;48.662;13.300;2022-08-30T13:16:27;97539.13;;;29.08;44.71
49947;BME280;35839;48.662;13.300;2022-08-30T13:21:53;97541.44;;;28.31;45.08
49947;BME280;35839;48.662;13.300;2022-08-30T13:24:19;97537.41;;;27.86;45.74
49947;BME280;35839;48.662;13.300;2022-08-30T13:26:44;97533.81;;;28.12;50.52
49947;BME280;35839;48.662;13.300;2022-08-30T13:29:20;97531.59;;;29.10;43.40
49947;BME280;35839;48.662;13.300;2022-08-30T13:31:46;97525.50;;;29.71;43.67
49947;BME280;35839;48.662;13.300;2022-08-30T13:34:11;97524.88;;;30.35;41.88
49947;BME280;35839;48.662;13.300;2022-08-30T13:36:45;97524.91;;;31.40;42.95
49947;BME280;35839;48.662;13.300;2022-08-30T13:39:11;97519.09;;;30.73;36.14
49947;BME280;35839;48.662;13.300;2022-08-30T13:41:37;97524.22;;;31.68;42.94
49947;BME280;35839;48.662;13.300;2022-08-30T13:44:03;97525.34;;;31.97;43.96
49947;BME280;35839;48.662;13.300;2022-08-30T13:46:29;97522.34;;;31.98;40.80
49947;BME280;35839;48.662;13.300;2022-08-30T13:49:01;97517.22;;;31.62;43.20
49947;BME280;35839;48.662;13.300;2022-08-30T13:51:27;97512.00;;;31.32;39.91
49947;BME280;35839;48.662;13.300;2022-08-30T13:53:52;97507.16;;;31.28;40.54
49947;BME280;35839;48.662;13.300;2022-08-30T13:56:18;97508.44;;;31.76;38.93
49947;BME280;35839;48.662;13.300;2022-08-30T13:58:43;97515.78;;;32.04;37.95
49947;BME280;35839;48.662;13.300;2022-08-30T14:01:09;97504.25;;;32.90;39.44
49947;BME280;35839;48.662;13.300;2022-08-30T14:03:34;97502.09;;;32.20;37.73
49947;BME280;35839;48.662;13.300;2022-08-30T14:05:59;97503.94;;;32.91;35.54
49947;BME280;35839;48.662;13.300;2022-08-30T14:08:27;97489.34;;;32.68;36.20
49947;BME280;35839;48.662;13.300;2022-08-30T14:10:53;97488.94;;;32.80;35.32
49947;BME280;35839;48.662;13.300;2022-08-30T14:13:19;97494.22;;;33.80;37.06
49947;BME280;35839;48.662;13.300;2022-08-30T14:15:45;97497.81;;;34.08;38.29
49947;BME280;35839;48.662;13.300;2022-08-30T14:18:12;97492.41;;;34.22;36.70
49947;BME280;35839;48.662;13.300;2022-08-30T14:20:38;97500.38;;;34.46;37.14
49947;BME280;35839;48.662;13.300;2022-08-30T14:23:04;97490.41;;;34.28;36.51
49947;BME280;35839;48.662;13.300;2022-08-30T14:25:29;97492.66;;;34.07;33.12
49947;BME280;35839;48.662;13.300;2022-08-30T14:27:55;97491.19;;;34.28;30.44
49947;BME280;35839;48.662;13.300;2022-08-30T14:30:21;97495.03;;;34.27;34.99
49947;BME280;35839;48.662;13.300;2022-08-30T14:32:46;97499.34;;;34.56;33.77
49947;BME280;35839;48.662;13.300;2022-08-30T14:35:12;97490.59;;;35.23;34.00
49947;BME280;35839;48.662;13.300;2022-08-30T14:37:37;97487.22;;;34.90;34.03
49947;BME280;35839;48.662;13.300;2022-08-30T14:40:03;97489.16;;;33.60;37.25
49947;BME280;35839;48.662;13.300;2022-08-30T14:42:29;97483.72;;;33.60;37.48
49947;BME280;35839;48.662;13.300;2022-08-30T14:44:54;97482.94;;;33.73;34.38
49947;BME280;35839;48.662;13.300;2022-08-30T14:47:19;97478.91;;;34.45;34.94
49947;BME280;35839;48.662;13.300;2022-08-30T14:49:45;97478.72;;;35.05;33.26
49947;BME280;35839;48.662;13.300;2022-08-30T14:52:10;97486.22;;;35.13;33.49
49947;BME280;35839;48.662;13.300;2022-08-30T14:54:35;97479.38;;;35.61;33.89
49947;BME280;35839;48.662;13.300;2022-08-30T14:57:01;97470.25;;;34.42;32.41
49947;BME280;35839;48.662;13.300;2022-08-30T14:59:26;97478.34;;;34.01;34.66
49947;BME280;35839;48.662;13.300;2022-08-30T15:01:52;97476.00;;;35.19;32.51
49947;BME280;35839;48.662;13.300;2022-08-30T15:04:17;97471.88;;;35.44;32.31
49947;BME280;35839;48.662;13.300;2022-08-30T15:06:45;97472.69;;;35.67;32.75
49947;BME280;35839;48.662;13.300;2022-08-30T15:09:13;97472.97;;;35.97;32.36
49947;BME280;35839;48.662;13.300;2022-08-30T15:11:39;97466.50;;;34.80;29.46
49947;BME280;35839;48.662;13.300;2022-08-30T15:14:05;97466.13;;;35.09;33.70
49947;BME280;35839;48.662;13.300;2022-08-30T15:16:32;97470.38;;;34.65;30.58
49947;BME280;35839;48.662;13.300;2022-08-30T15:18:59;97466.59;;;34.06;29.72
49947;BME280;35839;48.662;13.300;2022-08-30T15:21:33;97464.13;;;34.23;31.66
49947;BME280;35839;48.662;13.300;2022-08-30T15:24:00;97459.47;;;31.72;32.57
49947;BME280;35839;48.662;13.300;2022-08-30T15:26:26;97452.72;;;31.40;35.32
49947;BME280;35839;48.662;13.300;2022-08-30T15:28:52;97445.38;;;31.75;37.70
49947;BME280;35839;48.662;13.300;2022-08-30T15:31:19;97446.25;;;31.36;38.71
49947;BME280;35839;48.662;13.300;2022-08-30T15:33:45;97441.88;;;30.51;40.45
49947;BME280;35839;48.662;13.300;2022-08-30T15:36:11;97440.84;;;30.47;40.08
49947;BME280;35839;48.662;13.300;2022-08-30T15:38:37;97432.28;;;32.11;40.45
49947;BME280;35839;48.662;13.300;2022-08-30T15:41:05;97430.16;;;33.46;39.71
49947;BME280;35839;48.662;13.300;2022-08-30T15:43:31;97428.00;;;33.29;39.54
49947;BME280;35839;48.662;13.300;2022-08-30T15:48:40;97428.97;;;33.85;37.16
49947;BME280;35839;48.662;13.300;2022-08-30T15:51:05;97429.78;;;34.55;37.55
49947;BME280;35839;48.662;13.300;2022-08-30T15:53:32;97423.34;;;34.65;37.42
49947;BME280;35839;48.662;13.300;2022-08-30T15:55:58;97424.13;;;35.01;36.60
49947;BME280;35839;48.662;13.300;2022-08-30T15:58:23;97427.31;;;35.17;33.70
49947;BME280;35839;48.662;13.300;2022-08-30T16:00:48;97424.72;;;35.12;34.52
49947;BME280;35839;48.662;13.300;2022-08-30T16:03:14;97425.38;;;34.95;33.18
49947;BME280;35839;48.662;13.300;2022-08-30T16:05:39;97428.84;;;35.10;33.16
49947;BME280;35839;48.662;13.300;2022-08-30T16:08:04;97428.91;;;34.18;32.53
49947;BME280;35839;48.662;13.300;2022-08-30T16:10:30;97417.13;;;32.34;39.37
49947;BME280;35839;48.662;13.300;2022-08-30T16:12:55;97416.19;;;31.03;41.85
49947;BME280;35839;48.662;13.300;2022-08-30T16:15:24;97412.72;;;31.32;45.35
49947;BME280;35839;48.662;13.300;2022-08-30T16:17:49;97404.97;;;31.55;39.90
49947;BME280;35839;48.662;13.300;2022-08-30T16:20:15;97415.09;;;31.04;40.24
49947;BME280;35839;48.662;13.300;2022-08-30T16:22:40;97404.97;;;30.31;43.31
49947;BME280;35839;48.662;13.300;2022-08-30T16:25:06;97407.47;;;30.02;43.85
49947;BME280;35839;48.662;13.300;2022-08-30T16:27:31;97403.53;;;29.43;45.83
49947;BME280;35839;48.662;13.300;2022-08-30T16:29:57;97405.44;;;29.17;48.73
49947;BME280;35839;48.662;13.300;2022-08-30T16:32:22;97400.22;;;28.69;54.09
49947;BME280;35839;48.662;13.300;2022-08-30T16:34:48;97396.31;;;27.77;55.50
49947;BME280;35839;48.662;13.300;2022-08-30T16:37:13;97395.41;;;27.61;60.76
49947;BME280;35839;48.662;13.300;2022-08-30T16:39:38;97386.44;;;27.12;63.90
49947;BME280;35839;48.662;13.300;2022-08-30T16:42:04;97400.56;;;26.70;62.86
49947;BME280;35839;48.662;13.300;2022-08-30T16:44:30;97397.03;;;26.65;61.01
49947;BME280;35839;48.662;13.300;2022-08-30T16:46:56;97390.47;;;26.56;60.86
49947;BME280;35839;48.662;13.300;2022-08-30T16:49:22;97392.81;;;26.25;62.18
49947;BME280;35839;48.662;13.300;2022-08-30T16:51:47;97397.84;;;25.99;61.28
49947;BME280;35839;48.662;13.300;2022-08-30T16:54:13;97392.13;;;25.74;63.47
49947;BME280;35839;48.662;13.300;2022-08-30T16:56:39;97391.34;;;25.95;63.02
49947;BME280;35839;48.662;13.300;2022-08-30T16:59:05;97385.19;;;25.95;65.34
49947;BME280;35839;48.662;13.300;2022-08-30T17:01:32;97389.66;;;25.72;67.58
49947;BME280;35839;48.662;13.300;2022-08-30T17:03:58;97384.34;;;25.55;68.52
49947;BME280;35839;48.662;13.300;2022-08-30T17:06:24;97388.09;;;25.20;67.27
49947;BME280;35839;48.662;13.300;2022-08-30T17:08:50;97390.38;;;25.29;67.31
49947;BME280;35839;48.662;13.300;2022-08-30T17:11:15;97394.41;;;25.14;68.34
49947;BME280;35839;48.662;13.300;2022-08-30T17:13:41;97396.47;;;24.78;71.96
49947;BME280;35839;48.662;13.300;2022-08-30T17:16:06;97390.94;;;24.68;71.92
49947;BME280;35839;48.662;13.300;2022-08-30T17:18:33;97394.94;;;24.54;73.97
49947;BME280;35839;48.662;13.300;2022-08-30T17:20:59;97394.81;;;24.60;73.38
49947;BME280;35839;48.662;13.300;2022-08-30T17:23:24;97401.03;;;24.37;74.46
49947;BME280;35839;48.662;13.300;2022-08-30T17:25:50;97401.66;;;24.28;74.88
49947;BME280;35839;48.662;13.300;2022-08-30T17:28:15;97398.22;;;24.15;74.75
49947;BME280;35839;48.662;13.300;2022-08-30T17:30:40;97399.00;;;24.16;80.06
49947;BME280;35839;48.662;13.300;2022-08-30T17:33:06;97394.50;;;24.05;79.15
49947;BME280;35839;48.662;13.300;2022-08-30T17:35:32;97397.91;;;23.88;78.44
49947;BME280;35839;48.662;13.300;2022-08-30T17:37:58;97405.56;;;23.49;85.82
49947;BME280;35839;48.662;13.300;2022-08-30T17:40:23;97410.69;;;23.39;82.17
49947;BME280;35839;48.662;13.300;2022-08-30T17:42:49;97409.50;;;23.35;83.15
49947;BME280;35839;48.662;13.300;2022-08-30T17:45:15;97411.31;;;22.99;87.61
49947;BME280;35839;48.662;13.300;2022-08-30T17:47:42;97414.63;;;22.94;87.66
49947;BME280;35839;48.662;13.300;2022-08-30T17:50:08;97423.63;;;22.82;85.45
49947;BME280;35839;48.662;13.300;2022-08-30T17:52:34;97423.56;;;22.58;89.26
49947;BME280;35839;48.662;13.300;2022-08-30T17:55:00;97426.59;;;22.62;86.55
49947;BME280;35839;48.662;13.300;2022-08-30T17:57:26;97435.38;;;22.81;86.09
49947;BME280;35839;48.662;13.300;2022-08-30T17:59:52;97427.03;;;22.89;82.47
49947;BME280;35839;48.662;13.300;2022-08-30T18:02:18;97435.00;;;22.77;85.73
49947;BME280;35839;48.662;13.300;2022-08-30T18:04:44;97438.22;;;22.67;82.50
49947;BME280;35839;48.662;13.300;2022-08-30T18:07:10;97451.94;;;22.71;83.29
49947;BME280;35839;48.662;13.300;2022-08-30T18:09:36;97444.16;;;22.69;84.94
49947;BME280;35839;48.662;13.300;2022-08-30T18:12:02;97438.59;;;22.22;91.87
49947;BME280;35839;48.662;13.300;2022-08-30T18:14:27;97452.63;;;22.11;91.31
49947;BME280;35839;48.662;13.300;2022-08-30T18:16:53;97451.28;;;22.20;90.59
49947;BME280;35839;48.662;13.300;2022-08-30T18:19:18;97454.25;;;22.12;88.86
49947;BME280;35839;48.662;13.300;2022-08-30T18:21:43;97452.19;;;22.33;88.53
49947;BME280;35839;48.662;13.300;2022-08-30T18:24:09;97459.31;;;22.39;82.29
49947;BME280;35839;48.662;13.300;2022-08-30T18:26:35;97456.94;;;22.30;80.71
49947;BME280;35839;48.662;13.300;2022-08-30T18:29:02;97459.81;;;22.66;81.10
49947;BME280;35839;48.662;13.300;2022-08-30T18:31:28;97467.16;;;22.15;85.21
49947;BME280;35839;48.662;13.300;2022-08-30T18:33:54;97469.00;;;21.96;88.34
49947;BME280;35839;48.662;13.300;2022-08-30T18:36:19;97467.06;;;22.03;88.73
49947;BME280;35839;48.662;13.300;2022-08-30T18:38:45;97474.84;;;21.86;85.60
49947;BME280;35839;48.662;13.300;2022-08-30T18:41:11;97479.88;;;21.95;84.85
49947;BME280;35839;48.662;13.300;2022-08-30T18:43:41;97484.44;;;21.87;87.15
49947;BME280;35839;48.662;13.300;2022-08-30T18:46:10;97488.53;;;21.65;86.22
49947;BME280;35839;48.662;13.300;2022-08-30T18:48:36;97503.59;;;21.53;87.49
49947;BME280;35839;48.662;13.300;2022-08-30T18:51:02;97488.88;;;21.50;89.75
49947;BME280;35839;48.662;13.300;2022-08-30T18:53:28;97495.41;;;21.54;88.40
49947;BME280;35839;48.662;13.300;2022-08-30T18:55:53;97496.56;;;21.58;88.22
49947;BME280;35839;48.662;13.300;2022-08-30T18:58:19;97501.63;;;21.41;85.98
49947;BME280;35839;48.662;13.300;2022-08-30T19:00:45;97495.44;;;21.48;86.99
49947;BME280;35839;48.662;13.300;2022-08-30T19:03:11;97494.34;;;21.80;85.11
49947;BME280;35839;48.662;13.300;2022-08-30T19:05:36;97486.00;;;21.52;85.28
49947;BME280;35839;48.662;13.300;2022-08-30T19:08:03;97496.22;;;21.55;86.03
49947;BME280;35839;48.662;13.300;2022-08-30T19:10:29;97498.16;;;21.41;86.16
49947;BME280;35839;48.662;13.300;2022-08-30T19:12:54;97504.53;;;21.40;87.12
49947;BME280;35839;48.662;13.300;2022-08-30T19:15:20;97503.41;;;21.16;87.70
49947;BME280;35839;48.662;13.300;2022-08-30T19:17:47;97500.84;;;21.34;87.52
49947;BME280;35839;48.662;13.300;2022-08-30T19:20:15;97499.75;;;21.17;90.33
49947;BME280;35839;48.662;13.300;2022-08-30T19:22:47;97497.78;;;20.99;89.99